sensor_id;sensor_type;location;lat;lon;timestamp;pressure;altitude;pressure_sealevel;temperature;humidity
57248;BME280;55809;46.618;10.764;2023-04-03T00:01:26;92709.91;;;9.06;46.37
57248;BME280;55809;46.618;10.764;2023-04-03T00:03:56;92709.50;;;9.07;46.70
57248;BME280;55809;46.618;10.764;2023-04-03T00:06:27;92712.63;;;9.02;46.75
57248;BME280;55809;46.618;10.764;2023-04-03T00:08:57;92707.97;;;9.06;46.74
57248;BME280;55809;46.618;10.764;2023-04-03T00:11:27;92710.25;;;9.08;46.88
57248;BME280;55809;46.618;10.764;2023-04-03T00:13:55;92703.78;;;9.02;46.87
57248;BME280;55809;46.618;10.764;2023-04-03T00:16:23;92667.38;;;8.76;47.04
57248;BME280;55809;46.618;10.764;2023-04-03T00:18:51;92713.00;;;9.01;47.12
57248;BME280;55809;46.618;10.764;2023-04-03T00:21:20;92710.28;;;9.01;47.23
57248;BME280;55809;46.618;10.764;2023-04-03T00:23:48;92703.38;;;9.00;46.98
57248;BME280;55809;46.618;10.764;2023-04-03T00:26:18;92654.72;;;8.73;46.72
57248;BME280;55809;46.618;10.764;2023-04-03T00:28:47;92701.38;;;9.11;46.57
57248;BME280;55809;46.618;10.764;2023-04-03T00:31:16;92678.09;;;8.86;46.97
57248;BME280;55809;46.618;10.764;2023-04-03T00:33:44;92708.75;;;9.03;47.32
57248;BME280;55809;46.618;10.764;2023-04-03T00:36:12;92703.38;;;9.00;47.46
57248;BME280;55809;46.618;10.764;2023-04-03T00:38:41;92700.72;;;8.96;47.34
57248;BME280;55809;46.618;10.764;2023-04-03T00:41:09;92712.28;;;8.93;47.91
57248;BME280;55809;46.618;10.764;2023-04-03T00:43:42;92704.25;;;8.86;48.51
57248;BME280;55809;46.618;10.764;2023-04-03T00:46:11;92695.03;;;8.83;48.16
57248;BME280;55809;46.618;10.764;2023-04-03T00:48:41;92693.84;;;8.84;48.37
57248;BME280;55809;46.618;10.764;2023-04-03T00:51:13;92691.16;;;8.84;48.29
57248;BME280;55809;46.618;10.764;2023-04-03T00:53:44;92687.78;;;8.73;48.32
57248;BME280;55809;46.618;10.764;2023-04-03T00:56:16;92675.91;;;8.63;48.36
57248;BME280;55809;46.618;10.764;2023-04-03T00:58:48;92661.72;;;8.59;48.50
57248;BME280;55809;46.618;10.764;2023-04-03T01:01:21;92688.50;;;8.81;48.47
57248;BME280;55809;46.618;10.764;2023-04-03T01:03:50;92682.31;;;8.84;48.53
57248;BME280;55809;46.618;10.764;2023-04-03T01:06:23;92678.09;;;8.86;48.34
57248;BME280;55809;46.618;10.764;2023-04-03T01:08:54;92680.81;;;8.83;48.17
57248;BME280;55809;46.618;10.764;2023-04-03T01:11:23;92658.97;;;8.66;48.56
57248;BME280;55809;46.618;10.764;2023-04-03T01:13:53;92676.25;;;8.73;48.96
57248;BME280;55809;46.618;10.764;2023-04-03T01:16:21;92677.41;;;8.68;48.62
57248;BME280;55809;46.618;10.764;2023-04-03T01:18:48;92678.56;;;8.71;48.59
57248;BME280;55809;46.618;10.764;2023-04-03T01:21:41;92670.88;;;8.69;48.73
57248;BME280;55809;46.618;10.764;2023-04-03T01:24:22;92668.97;;;8.69;48.94
57248;BME280;55809;46.618;10.764;2023-04-03T01:26:53;92670.88;;;8.69;48.73
57248;BME280;55809;46.618;10.764;2023-04-03T01:29:23;92675.13;;;8.66;49.15
57248;BME280;55809;46.618;10.764;2023-04-03T01:31:56;92676.28;;;8.62;48.91
57248;BME280;55809;46.618;10.764;2023-04-03T01:34:25;92663.22;;;8.64;49.04
57248;BME280;55809;46.618;10.764;2023-04-03T01:36:54;92667.81;;;8.67;48.92
57248;BME280;55809;46.618;10.764;2023-04-03T01:39:24;92650.19;;;8.59;48.75
57248;BME280;55809;46.618;10.764;2023-04-03T01:41:53;92670.09;;;8.72;48.23
57248;BME280;55809;46.618;10.764;2023-04-03T01:44:21;92667.75;;;8.78;48.10
57248;BME280;55809;46.618;10.764;2023-04-03T01:46:49;92665.44;;;8.80;47.64
57248;BME280;55809;46.618;10.764;2023-04-03T01:49:19;92668.53;;;8.75;47.79
57248;BME280;55809;46.618;10.764;2023-04-03T01:51:47;92654.72;;;8.73;48.07
57248;BME280;55809;46.618;10.764;2023-04-03T01:54:16;92659.72;;;8.71;48.31
57248;BME280;55809;46.618;10.764;2023-04-03T01:56:44;92657.84;;;8.64;49.00
57248;BME280;55809;46.618;10.764;2023-04-03T01:59:12;92656.69;;;8.61;49.07
57248;BME280;55809;46.618;10.764;2023-04-03T02:01:43;92658.63;;;8.61;49.32
57248;BME280;55809;46.618;10.764;2023-04-03T02:04:12;92657.84;;;8.64;48.47
57248;BME280;55809;46.618;10.764;2023-04-03T02:06:42;92613.34;;;8.45;47.06
57248;BME280;55809;46.618;10.764;2023-04-03T02:09:11;92645.81;;;8.83;45.77
57248;BME280;55809;46.618;10.764;2023-04-03T02:11:39;92644.22;;;8.92;45.68
57248;BME280;55809;46.618;10.764;2023-04-03T02:14:07;92652.25;;;9.00;46.37
57248;BME280;55809;46.618;10.764;2023-04-03T02:16:35;92644.56;;;8.95;46.59
57248;BME280;55809;46.618;10.764;2023-04-03T02:19:06;92641.50;;;8.96;47.08
57248;BME280;55809;46.618;10.764;2023-04-03T02:21:36;92643.09;;;8.86;47.15
57248;BME280;55809;46.618;10.764;2023-04-03T02:24:06;92605.56;;;8.61;47.36
57248;BME280;55809;46.618;10.764;2023-04-03T02:26:37;92648.88;;;8.81;48.64
57248;BME280;55809;46.618;10.764;2023-04-03T02:29:06;92644.34;;;8.71;49.02
57248;BME280;55809;46.618;10.764;2023-04-03T02:31:33;92631.69;;;8.64;49.58
57248;BME280;55809;46.618;10.764;2023-04-03T02:34:01;92650.53;;;8.61;49.95
57248;BME280;55809;46.618;10.764;2023-04-03T02:36:29;92638.31;;;8.49;49.97
57248;BME280;55809;46.618;10.764;2023-04-03T02:38:57;92649.44;;;8.48;50.25
57248;BME280;55809;46.618;10.764;2023-04-03T02:41:27;92652.13;;;8.51;49.85
57248;BME280;55809;46.618;10.764;2023-04-03T02:44:02;92648.66;;;8.51;49.74
57248;BME280;55809;46.618;10.764;2023-04-03T02:46:30;92617.59;;;8.39;49.19
57248;BME280;55809;46.618;10.764;2023-04-03T02:48:59;92640.19;;;8.59;48.87
57248;BME280;55809;46.618;10.764;2023-04-03T02:51:27;92643.22;;;8.61;49.01
57248;BME280;55809;46.618;10.764;2023-04-03T02:53:56;92645.53;;;8.63;48.54
57248;BME280;55809;46.618;10.764;2023-04-03T02:56:24;92650.53;;;8.64;48.98
57248;BME280;55809;46.618;10.764;2023-04-03T02:58:56;92646.28;;;8.67;48.70
57248;BME280;55809;46.618;10.764;2023-04-03T03:01:24;92647.03;;;8.67;48.86
57248;BME280;55809;46.618;10.764;2023-04-03T03:03:55;92649.75;;;8.67;48.44
57248;BME280;55809;46.618;10.764;2023-04-03T03:06:23;92650.88;;;8.70;48.61
57248;BME280;55809;46.618;10.764;2023-04-03T03:08:53;92614.16;;;8.38;48.74
57248;BME280;55809;46.618;10.764;2023-04-03T03:11:22;92655.13;;;8.67;48.95
57248;BME280;55809;46.618;10.764;2023-04-03T03:13:50;92664.00;;;8.57;49.35
57248;BME280;55809;46.618;10.764;2023-04-03T03:16:20;92657.13;;;8.53;49.33
57248;BME280;55809;46.618;10.764;2023-04-03T03:18:48;92650.22;;;8.48;49.90
57248;BME280;55809;46.618;10.764;2023-04-03T03:21:16;92655.63;;;8.44;50.28
57248;BME280;55809;46.618;10.764;2023-04-03T03:23:44;92643.34;;;8.40;50.32
57248;BME280;55809;46.618;10.764;2023-04-03T03:26:12;92635.66;;;8.31;49.80
57248;BME280;55809;46.618;10.764;2023-04-03T03:28:40;92645.63;;;8.41;50.45
57248;BME280;55809;46.618;10.764;2023-04-03T03:31:09;92633.75;;;8.32;50.66
57248;BME280;55809;46.618;10.764;2023-04-03T03:33:40;92638.72;;;8.37;50.30
57248;BME280;55809;46.618;10.764;2023-04-03T03:36:08;92642.22;;;8.30;50.95
57248;BME280;55809;46.618;10.764;2023-04-03T03:38:36;92636.84;;;8.30;50.93
57248;BME280;55809;46.618;10.764;2023-04-03T03:41:04;92639.13;;;8.28;50.86
57248;BME280;55809;46.618;10.764;2023-04-03T03:43:33;92635.28;;;8.26;50.43
57248;BME280;55809;46.618;10.764;2023-04-03T03:46:02;92644.50;;;8.28;51.03
57248;BME280;55809;46.618;10.764;2023-04-03T03:48:30;92642.59;;;8.29;50.92
57248;BME280;55809;46.618;10.764;2023-04-03T03:50:59;92637.63;;;8.23;50.89
57248;BME280;55809;46.618;10.764;2023-04-03T03:53:27;92641.06;;;8.24;51.15
57248;BME280;55809;46.618;10.764;2023-04-03T03:55:56;92639.56;;;8.23;50.88
57248;BME280;55809;46.618;10.764;2023-04-03T03:58:24;92646.84;;;8.15;50.49
57248;BME280;55809;46.618;10.764;2023-04-03T04:00:55;92641.47;;;8.26;49.32
57248;BME280;55809;46.618;10.764;2023-04-03T04:03:24;92639.13;;;8.28;48.63
57248;BME280;55809;46.618;10.764;2023-04-03T04:05:53;92650.66;;;8.39;48.01
57248;BME280;55809;46.618;10.764;2023-04-03T04:08:24;92649.84;;;8.46;47.52
57248;BME280;55809;46.618;10.764;2023-04-03T04:10:54;92650.22;;;8.48;47.75
57248;BME280;55809;46.618;10.764;2023-04-03T04:13:24;92642.19;;;8.41;48.32
57248;BME280;55809;46.618;10.764;2023-04-03T04:15:52;92655.25;;;8.46;48.34
57248;BME280;55809;46.618;10.764;2023-04-03T04:18:21;92649.09;;;8.35;50.01
57248;BME280;55809;46.618;10.764;2023-04-03T04:20:53;92628.44;;;8.17;50.87
57248;BME280;55809;46.618;10.764;2023-04-03T04:23:28;92653.41;;;8.11;51.56
57248;BME280;55809;46.618;10.764;2023-04-03T04:26:00;92654.97;;;8.01;52.21
57248;BME280;55809;46.618;10.764;2023-04-03T04:28:29;92654.25;;;7.93;52.30
57248;BME280;55809;46.618;10.764;2023-04-03T04:30:59;92650.38;;;7.94;52.63
57248;BME280;55809;46.618;10.764;2023-04-03T04:33:28;92655.78;;;7.87;53.35
57248;BME280;55809;46.618;10.764;2023-04-03T04:36:00;92653.47;;;7.86;53.50
57248;BME280;55809;46.618;10.764;2023-04-03T04:38:52;92648.47;;;7.91;52.89
57248;BME280;55809;46.618;10.764;2023-04-03T04:41:22;92658.06;;;7.89;52.56
57248;BME280;55809;46.618;10.764;2023-04-03T04:43:53;92657.31;;;7.88;52.96
57248;BME280;55809;46.618;10.764;2023-04-03T04:46:25;92656.53;;;7.88;53.35
57248;BME280;55809;46.618;10.764;2023-04-03T04:48:59;92661.94;;;7.84;53.22
57248;BME280;55809;46.618;10.764;2023-04-03T04:51:46;92660.00;;;7.81;53.63
57248;BME280;55809;46.618;10.764;2023-04-03T04:54:17;92656.94;;;7.79;53.74
57248;BME280;55809;46.618;10.764;2023-04-03T04:56:56;92666.91;;;7.82;53.71
57248;BME280;55809;46.618;10.764;2023-04-03T04:59:26;92661.16;;;7.73;53.59
57248;BME280;55809;46.618;10.764;2023-04-03T05:01:59;92670.00;;;7.73;53.45
57248;BME280;55809;46.618;10.764;2023-04-03T05:04:29;92664.25;;;7.71;53.06
57248;BME280;55809;46.618;10.764;2023-04-03T05:07:04;92665.78;;;7.72;53.13
57248;BME280;55809;46.618;10.764;2023-04-03T05:09:45;92669.22;;;7.87;52.96
57248;BME280;55809;46.618;10.764;2023-04-03T05:12:21;92665.16;;;8.60;50.66
57248;BME280;55809;46.618;10.764;2023-04-03T05:15:14;92667.03;;;9.29;48.63
57248;BME280;55809;46.618;10.764;2023-04-03T05:17:44;92661.69;;;10.12;46.31
57248;BME280;55809;46.618;10.764;2023-04-03T05:20:16;92663.94;;;10.55;44.95
57248;BME280;55809;46.618;10.764;2023-04-03T05:22:45;92664.56;;;10.97;43.74
57248;BME280;55809;46.618;10.764;2023-04-03T05:25:18;92669.97;;;11.47;42.15
57248;BME280;55809;46.618;10.764;2023-04-03T05:27:48;92659.34;;;11.60;41.45
57248;BME280;55809;46.618;10.764;2023-04-03T05:30:18;92672.69;;;11.47;41.76
57248;BME280;55809;46.618;10.764;2023-04-03T05:32:47;92665.56;;;11.34;42.21
57248;BME280;55809;46.618;10.764;2023-04-03T05:35:28;92667.44;;;11.37;42.43
57248;BME280;55809;46.618;10.764;2023-04-03T05:37:58;92660.88;;;11.11;42.74
57248;BME280;55809;46.618;10.764;2023-04-03T05:40:34;92672.69;;;10.93;43.21
57248;BME280;55809;46.618;10.764;2023-04-03T05:43:06;92666.97;;;10.88;43.17
57248;BME280;55809;46.618;10.764;2023-04-03T05:45:50;92673.56;;;10.87;42.37
57248;BME280;55809;46.618;10.764;2023-04-03T05:48:19;92663.78;;;10.96;42.31
57248;BME280;55809;46.618;10.764;2023-04-03T05:50:47;92673.09;;;10.92;41.96
57248;BME280;55809;46.618;10.764;2023-04-03T05:53:19;92675.00;;;11.22;41.74
57248;BME280;55809;46.618;10.764;2023-04-03T05:55:51;92670.03;;;11.44;41.13
57248;BME280;55809;46.618;10.764;2023-04-03T05:58:20;92663.31;;;11.56;40.44
57248;BME280;55809;46.618;10.764;2023-04-03T06:00:48;92658.50;;;11.90;39.68
57248;BME280;55809;46.618;10.764;2023-04-03T06:03:16;92665.38;;;11.95;38.19
57248;BME280;55809;46.618;10.764;2023-04-03T06:05:45;92647.97;;;11.96;38.83
57248;BME280;55809;46.618;10.764;2023-04-03T06:08:14;92653.25;;;12.03;39.71
57248;BME280;55809;46.618;10.764;2023-04-03T06:10:42;92656.19;;;12.12;39.37
57248;BME280;55809;46.618;10.764;2023-04-03T06:13:24;92624.88;;;11.91;38.75
57248;BME280;55809;46.618;10.764;2023-04-03T06:15:52;92656.75;;;12.24;38.81
57248;BME280;55809;46.618;10.764;2023-04-03T06:18:19;92630.09;;;12.02;38.93
57248;BME280;55809;46.618;10.764;2023-04-03T06:20:48;92627.19;;;12.33;38.85
57248;BME280;55809;46.618;10.764;2023-04-03T06:23:16;92660.25;;;12.64;37.47
57248;BME280;55809;46.618;10.764;2023-04-03T06:25:45;92655.47;;;12.88;35.78
57248;BME280;55809;46.618;10.764;2023-04-03T06:28:15;92653.66;;;13.01;36.22
57248;BME280;55809;46.618;10.764;2023-04-03T06:30:45;92622.19;;;12.71;34.10
57248;BME280;55809;46.618;10.764;2023-04-03T06:33:14;92649.53;;;12.77;32.84
57248;BME280;55809;46.618;10.764;2023-04-03T06:35:42;92650.91;;;12.85;32.16
57248;BME280;55809;46.618;10.764;2023-04-03T06:38:10;92636.00;;;12.93;31.24
57248;BME280;55809;46.618;10.764;2023-04-03T06:40:40;92645.63;;;13.14;31.66
57248;BME280;55809;46.618;10.764;2023-04-03T06:43:09;92647.59;;;13.13;31.38
57248;BME280;55809;46.618;10.764;2023-04-03T06:45:38;92644.94;;;13.30;31.23
57248;BME280;55809;46.618;10.764;2023-04-03T06:48:07;92647.31;;;13.44;30.65
57248;BME280;55809;46.618;10.764;2023-04-03T06:50:35;92643.00;;;13.47;30.92
57248;BME280;55809;46.618;10.764;2023-04-03T06:53:06;92642.06;;;13.70;30.76
57248;BME280;55809;46.618;10.764;2023-04-03T06:55:34;92638.97;;;14.00;30.29
57248;BME280;55809;46.618;10.764;2023-04-03T06:58:02;92634.31;;;13.84;30.19
57248;BME280;55809;46.618;10.764;2023-04-03T07:00:31;92631.72;;;14.10;29.29
57248;BME280;55809;46.618;10.764;2023-04-03T07:03:01;92604.53;;;13.97;29.43
57248;BME280;55809;46.618;10.764;2023-04-03T07:05:29;92638.25;;;14.13;29.43
57248;BME280;55809;46.618;10.764;2023-04-03T07:07:58;92616.75;;;14.05;28.83
57248;BME280;55809;46.618;10.764;2023-04-03T07:10:26;92638.47;;;14.05;28.57
57248;BME280;55809;46.618;10.764;2023-04-03T07:12:56;92637.06;;;14.14;28.91
57248;BME280;55809;46.618;10.764;2023-04-03T07:15:25;92632.78;;;14.29;28.79
57248;BME280;55809;46.618;10.764;2023-04-03T07:17:53;92627.41;;;14.42;28.28
57248;BME280;55809;46.618;10.764;2023-04-03T07:20:26;92536.94;;;14.03;28.35
57248;BME280;55809;46.618;10.764;2023-04-03T07:22:57;92614.50;;;14.46;28.79
57248;BME280;55809;46.618;10.764;2023-04-03T07:25:26;92560.50;;;13.77;28.33
57248;BME280;55809;46.618;10.764;2023-04-03T07:27:55;92615.34;;;14.43;28.52
57248;BME280;55809;46.618;10.764;2023-04-03T07:30:23;92614.03;;;14.05;28.22
57248;BME280;55809;46.618;10.764;2023-04-03T07:32:54;92618.72;;;14.18;28.48
57248;BME280;55809;46.618;10.764;2023-04-03T07:35:29;92627.16;;;14.36;28.43
57248;BME280;55809;46.618;10.764;2023-04-03T07:38:04;92619.94;;;14.46;28.14
57248;BME280;55809;46.618;10.764;2023-04-03T07:40:34;92620.88;;;14.39;28.35
57248;BME280;55809;46.618;10.764;2023-04-03T07:43:02;92628.34;;;14.51;27.99
57248;BME280;55809;46.618;10.764;2023-04-03T07:45:33;92627.19;;;14.65;26.77
57248;BME280;55809;46.618;10.764;2023-04-03T07:48:02;92612.19;;;14.73;27.09
57248;BME280;55809;46.618;10.764;2023-04-03T07:50:34;92620.47;;;14.83;25.65
57248;BME280;55809;46.618;10.764;2023-04-03T07:53:03;92618.00;;;15.14;25.87
57248;BME280;55809;46.618;10.764;2023-04-03T07:55:32;92587.13;;;15.08;26.04
57248;BME280;55809;46.618;10.764;2023-04-03T07:58:08;92616.34;;;15.42;26.07
57248;BME280;55809;46.618;10.764;2023-04-03T08:00:38;92622.66;;;15.26;25.84
57248;BME280;55809;46.618;10.764;2023-04-03T08:03:09;92572.97;;;15.25;25.06
57248;BME280;55809;46.618;10.764;2023-04-03T08:05:41;92592.13;;;15.22;23.98
57248;BME280;55809;46.618;10.764;2023-04-03T08:08:12;92604.84;;;15.12;24.22
57248;BME280;55809;46.618;10.764;2023-04-03T08:10:40;92613.53;;;15.33;24.17
57248;BME280;55809;46.618;10.764;2023-04-03T08:13:09;92579.16;;;15.26;24.29
57248;BME280;55809;46.618;10.764;2023-04-03T08:15:45;92595.06;;;15.15;23.75
57248;BME280;55809;46.618;10.764;2023-04-03T08:18:13;92576.13;;;15.24;23.15
57248;BME280;55809;46.618;10.764;2023-04-03T08:20:44;92595.47;;;15.26;22.63
57248;BME280;55809;46.618;10.764;2023-04-03T08:23:13;92599.91;;;15.45;22.97
57248;BME280;55809;46.618;10.764;2023-04-03T08:25:43;92595.88;;;15.63;22.27
57248;BME280;55809;46.618;10.764;2023-04-03T08:28:11;92569.94;;;15.11;21.85
57248;BME280;55809;46.618;10.764;2023-04-03T08:30:41;92591.25;;;15.25;21.30
57248;BME280;55809;46.618;10.764;2023-04-03T08:33:10;92580.59;;;15.31;21.98
57248;BME280;55809;46.618;10.764;2023-04-03T08:35:47;92586.16;;;15.27;21.37
57248;BME280;55809;46.618;10.764;2023-04-03T08:38:16;92589.50;;;15.31;21.31
57248;BME280;55809;46.618;10.764;2023-04-03T08:40:44;92581.88;;;15.39;19.64
57248;BME280;55809;46.618;10.764;2023-04-03T08:43:32;92587.78;;;15.24;20.63
57248;BME280;55809;46.618;10.764;2023-04-03T08:46:24;92580.22;;;15.54;20.40
57248;BME280;55809;46.618;10.764;2023-04-03T08:48:58;92580.22;;;15.54;20.15
57248;BME280;55809;46.618;10.764;2023-04-03T08:52:02;92591.13;;;15.67;20.02
57248;BME280;55809;46.618;10.764;2023-04-03T08:55:00;92593.03;;;15.79;20.25
57248;BME280;55809;46.618;10.764;2023-04-03T08:58:00;92595.13;;;15.49;19.73
57248;BME280;55809;46.618;10.764;2023-04-03T09:00:51;92585.22;;;15.68;19.57
57248;BME280;55809;46.618;10.764;2023-04-03T09:03:28;92589.59;;;15.53;20.14
57248;BME280;55809;46.618;10.764;2023-04-03T09:06:15;92570.69;;;15.37;19.26
57248;BME280;55809;46.618;10.764;2023-04-03T09:09:23;92575.34;;;15.36;19.35
57248;BME280;55809;46.618;10.764;2023-04-03T09:12:17;92584.34;;;15.59;19.96
57248;BME280;55809;46.618;10.764;2023-04-03T09:14:54;92579.91;;;15.39;19.47
57248;BME280;55809;46.618;10.764;2023-04-03T09:17:41;92582.69;;;15.87;19.82
57248;BME280;55809;46.618;10.764;2023-04-03T09:20:24;92591.22;;;15.76;19.47
57248;BME280;55809;46.618;10.764;2023-04-03T09:22:52;92583.81;;;15.77;19.80
57248;BME280;55809;46.618;10.764;2023-04-03T09:25:41;92576.06;;;15.75;19.83
57248;BME280;55809;46.618;10.764;2023-04-03T09:28:14;92577.78;;;15.82;20.04
57248;BME280;55809;46.618;10.764;2023-04-03T09:30:44;92573.16;;;15.69;20.07
57248;BME280;55809;46.618;10.764;2023-04-03T09:33:20;92570.16;;;15.89;20.44
57248;BME280;55809;46.618;10.764;2023-04-03T09:36:01;92575.59;;;15.89;19.95
57248;BME280;55809;46.618;10.764;2023-04-03T09:38:35;92583.53;;;16.18;20.05
57248;BME280;55809;46.618;10.764;2023-04-03T09:41:13;92566.16;;;16.16;19.44
57248;BME280;55809;46.618;10.764;2023-04-03T09:43:52;92574.81;;;15.89;19.74
57248;BME280;55809;46.618;10.764;2023-04-03T09:46:31;92560.50;;;15.63;20.42
57248;BME280;55809;46.618;10.764;2023-04-03T09:49:00;92549.34;;;15.48;19.66
57248;BME280;55809;46.618;10.764;2023-04-03T09:51:30;92576.81;;;15.76;20.43
57248;BME280;55809;46.618;10.764;2023-04-03T09:54:36;92578.16;;;16.06;19.94
57248;BME280;55809;46.618;10.764;2023-04-03T09:57:11;92571.44;;;15.98;19.78
57248;BME280;55809;46.618;10.764;2023-04-03T09:59:44;92537.97;;;15.62;20.04
57248;BME280;55809;46.618;10.764;2023-04-03T10:02:28;92567.66;;;16.17;19.91
57248;BME280;55809;46.618;10.764;2023-04-03T10:04:58;92548.44;;;15.99;18.70
57248;BME280;55809;46.618;10.764;2023-04-03T10:07:32;92562.97;;;16.17;18.90
57248;BME280;55809;46.618;10.764;2023-04-03T10:10:01;92556.84;;;16.26;19.16
57248;BME280;55809;46.618;10.764;2023-04-03T10:12:31;92567.38;;;16.02;18.99
57248;BME280;55809;46.618;10.764;2023-04-03T10:15:00;92539.97;;;15.97;19.35
57248;BME280;55809;46.618;10.764;2023-04-03T10:17:41;92552.53;;;16.16;18.62
57248;BME280;55809;46.618;10.764;2023-04-03T10:20:26;92555.94;;;16.07;19.25
57248;BME280;55809;46.618;10.764;2023-04-03T10:23:06;92557.44;;;15.86;18.84
57248;BME280;55809;46.618;10.764;2023-04-03T10:25:43;92541.56;;;15.72;19.41
57248;BME280;55809;46.618;10.764;2023-04-03T10:28:29;92539.56;;;15.85;18.64
57248;BME280;55809;46.618;10.764;2023-04-03T10:31:05;92510.53;;;16.04;19.10
57248;BME280;55809;46.618;10.764;2023-04-03T10:33:51;92528.25;;;16.31;19.41
57248;BME280;55809;46.618;10.764;2023-04-03T10:36:31;92518.91;;;16.10;18.74
57248;BME280;55809;46.618;10.764;2023-04-03T10:39:08;92517.34;;;16.09;18.11
57248;BME280;55809;46.618;10.764;2023-04-03T10:41:54;92516.16;;;15.88;19.08
57248;BME280;55809;46.618;10.764;2023-04-03T10:44:35;92518.38;;;16.02;19.52
57248;BME280;55809;46.618;10.764;2023-04-03T10:47:06;92514.78;;;15.83;19.10
57248;BME280;55809;46.618;10.764;2023-04-03T10:49:47;92513.88;;;16.08;19.05
57248;BME280;55809;46.618;10.764;2023-04-03T10:52:21;92508.91;;;16.07;19.31
57248;BME280;55809;46.618;10.764;2023-04-03T10:54:58;92509.84;;;16.13;18.54
57248;BME280;55809;46.618;10.764;2023-04-03T10:57:30;92501.63;;;16.04;18.50
57248;BME280;55809;46.618;10.764;2023-04-03T11:00:03;92471.94;;;15.62;18.88
57248;BME280;55809;46.618;10.764;2023-04-03T11:02:37;92487.38;;;15.65;18.79
57248;BME280;55809;46.618;10.764;2023-04-03T11:05:18;92492.38;;;16.01;19.63
57248;BME280;55809;46.618;10.764;2023-04-03T11:07:53;92499.59;;;16.17;18.57
57248;BME280;55809;46.618;10.764;2023-04-03T11:10:31;92481.34;;;16.05;18.44
57248;BME280;55809;46.618;10.764;2023-04-03T11:13:12;92482.41;;;15.85;18.89
57248;BME280;55809;46.618;10.764;2023-04-03T11:15:44;92475.97;;;15.57;18.73
57248;BME280;55809;46.618;10.764;2023-04-03T11:18:15;92480.59;;;15.47;19.00
57248;BME280;55809;46.618;10.764;2023-04-03T11:20:53;92445.66;;;15.46;19.68
57248;BME280;55809;46.618;10.764;2023-04-03T11:23:25;92476.59;;;15.74;19.86
57248;BME280;55809;46.618;10.764;2023-04-03T11:26:11;92474.56;;;15.87;19.63
57248;BME280;55809;46.618;10.764;2023-04-03T11:28:40;92464.50;;;15.75;19.44
57248;BME280;55809;46.618;10.764;2023-04-03T11:31:20;92469.56;;;15.86;19.37
57248;BME280;55809;46.618;10.764;2023-04-03T11:34:02;92458.19;;;16.00;18.81
57248;BME280;55809;46.618;10.764;2023-04-03T11:36:40;92463.00;;;15.74;19.21
57248;BME280;55809;46.618;10.764;2023-04-03T11:39:26;92457.81;;;15.67;19.79
57248;BME280;55809;46.618;10.764;2023-04-03T11:42:13;92459.31;;;15.68;19.97
57248;BME280;55809;46.618;10.764;2023-04-03T11:44:42;92436.63;;;15.49;19.68
57248;BME280;55809;46.618;10.764;2023-04-03T11:47:44;92459.78;;;15.54;20.13
57248;BME280;55809;46.618;10.764;2023-04-03T11:50:46;92455.59;;;15.75;20.11
57248;BME280;55809;46.618;10.764;2023-04-03T11:53:41;92438.94;;;15.38;19.36
57248;BME280;55809;46.618;10.764;2023-04-03T11:56:27;92449.72;;;15.41;19.78
57248;BME280;55809;46.618;10.764;2023-04-03T11:59:22;92445.91;;;15.39;20.00
57248;BME280;55809;46.618;10.764;2023-04-03T12:01:49;92438.91;;;15.51;20.60
57248;BME280;55809;46.618;10.764;2023-04-03T12:04:21;92435.34;;;15.41;20.75
57248;BME280;55809;46.618;10.764;2023-04-03T12:10:18;92433.59;;;15.12;21.04
57248;BME280;55809;46.618;10.764;2023-04-03T12:12:57;92433.41;;;14.94;21.15
57248;BME280;55809;46.618;10.764;2023-04-03T12:15:54;92426.47;;;14.80;20.68
57248;BME280;55809;46.618;10.764;2023-04-03T12:18:43;92430.84;;;14.65;21.03
57248;BME280;55809;46.618;10.764;2023-04-03T12:21:15;92425.06;;;14.50;21.98
57248;BME280;55809;46.618;10.764;2023-04-03T12:24:02;92426.59;;;14.64;22.14
57248;BME280;55809;46.618;10.764;2023-04-03T12:26:38;92416.47;;;14.13;20.64
57248;BME280;55809;46.618;10.764;2023-04-03T12:29:17;92427.53;;;14.06;21.33
57248;BME280;55809;46.618;10.764;2023-04-03T12:32:04;92419.72;;;13.95;21.61
57248;BME280;55809;46.618;10.764;2023-04-03T12:35:00;92423.78;;;13.74;21.46
57248;BME280;55809;46.618;10.764;2023-04-03T12:40:48;92413.34;;;13.60;23.69
57248;BME280;55809;46.618;10.764;2023-04-03T12:43:29;92404.09;;;13.57;24.20
57248;BME280;55809;46.618;10.764;2023-04-03T12:46:04;92418.97;;;13.53;24.59
57248;BME280;55809;46.618;10.764;2023-04-03T12:48:47;92403.06;;;13.38;25.14
57248;BME280;55809;46.618;10.764;2023-04-03T12:51:18;92411.28;;;13.35;24.42
57248;BME280;55809;46.618;10.764;2023-04-03T12:53:49;92412.84;;;13.36;24.32
57248;BME280;55809;46.618;10.764;2023-04-03T12:56:23;92412.16;;;13.32;24.32
57248;BME280;55809;46.618;10.764;2023-04-03T12:58:53;92412.59;;;13.30;24.44
57248;BME280;55809;46.618;10.764;2023-04-03T13:01:25;92396.53;;;13.07;24.81
57248;BME280;55809;46.618;10.764;2023-04-03T13:03:55;92403.47;;;13.08;24.61
57248;BME280;55809;46.618;10.764;2023-04-03T13:06:28;92409.03;;;13.17;24.56
57248;BME280;55809;46.618;10.764;2023-04-03T13:09:00;92406.31;;;13.17;24.44
57248;BME280;55809;46.618;10.764;2023-04-03T13:11:33;92415.81;;;13.09;24.68
57248;BME280;55809;46.618;10.764;2023-04-03T13:14:05;92405.50;;;13.04;24.39
57248;BME280;55809;46.618;10.764;2023-04-03T13:16:33;92398.13;;;13.04;24.60
57248;BME280;55809;46.618;10.764;2023-04-03T13:19:01;92405.16;;;13.02;24.77
57248;BME280;55809;46.618;10.764;2023-04-03T13:21:31;92394.50;;;12.95;24.12
57248;BME280;55809;46.618;10.764;2023-04-03T13:24:01;92399.19;;;12.94;23.95
57248;BME280;55809;46.618;10.764;2023-04-03T13:26:33;92398.31;;;12.97;24.66
57248;BME280;55809;46.618;10.764;2023-04-03T13:29:07;92395.47;;;12.88;24.31
57248;BME280;55809;46.618;10.764;2023-04-03T13:31:45;92399.88;;;12.82;24.01
57248;BME280;55809;46.618;10.764;2023-04-03T13:34:29;92388.38;;;12.78;24.70